Ensley, Alabama
Current Conditions -  °F | °C
As of 2:53 PM on Sunday 23 Nov 2014 (Local Time) from KBHM Reporting Station
Broken Clouds Broken Clouds  
Wind Chill: 63°   Ceiling: 11000
Heat Index: 63°   Visibility: 10mi
Dew Point: 61°   Wind: 9mph
Humidity: 93%   Direction: 140°SE
Pressure: 29.55"   Gusts: NA
Location:  33.508°N, 86.8948°W
Report Text: KBHM 232053Z 14008KT 10SM FEW070 BKN110 17/16 A2955 RMK AO2 RAE36 SLP003 P0009 60040 T01720161 56045
Loading
Personal Weather Stations






























Interactive Weather Map New forecast layout! Learn more

10-Day Weather Forecast

Advertisements
Track Severe Weather on mobile